createdAt,value
2022-07-29T00:01:09.363Z,22.32
2022-07-29T00:03:46.771Z,22.12
2022-07-29T00:06:15.032Z,21.42
2022-07-29T00:08:42.272Z,21.76
2022-07-29T00:11:09.730Z,21.34
2022-07-29T00:13:36.747Z,21.65
2022-07-29T00:16:04.711Z,21.24
2022-07-29T00:18:32.924Z,21.59
2022-07-29T00:21:00.185Z,21.47
2022-07-29T00:23:27.540Z,21.52
2022-07-29T00:25:55.053Z,22.19
2022-07-29T00:28:22.166Z,22.13
2022-07-29T00:30:49.320Z,21.59
2022-07-29T00:33:16.622Z,21.55
2022-07-29T00:35:47.089Z,21.74
2022-07-29T00:38:18.295Z,22.24
2022-07-29T00:40:46.149Z,22.55
2022-07-29T00:43:14.735Z,22.72
2022-07-29T00:45:44.433Z,22.74
2022-07-29T00:48:11.493Z,22.60
2022-07-29T00:50:39.777Z,22.89
2022-07-29T00:53:08.882Z,22.97
2022-07-29T00:55:36.518Z,22.81
2022-07-29T00:58:04.208Z,22.80
2022-07-29T01:00:31.784Z,22.64
2022-07-29T01:02:59.327Z,22.14
2022-07-29T01:05:49.801Z,22.14
2022-07-29T01:08:18.185Z,22.40
2022-07-29T01:10:47.053Z,21.92
2022-07-29T01:13:15.873Z,22.22
2022-07-29T01:16:08.287Z,22.50
2022-07-29T01:18:40.446Z,21.97
2022-07-29T01:21:51.942Z,22.53
2022-07-29T01:25:28.306Z,22.66
2022-07-29T01:28:11.786Z,22.09
2022-07-29T01:30:42.938Z,22.15
2022-07-29T01:33:36.414Z,22.27
2022-07-29T01:36:12.779Z,22.51
2022-07-29T01:38:43.190Z,22.64
2022-07-29T01:41:16.365Z,22.26
2022-07-29T01:44:02.349Z,22.31
2022-07-29T01:46:38.396Z,22.49
2022-07-29T01:49:21.120Z,21.85
2022-07-29T01:51:54.036Z,21.90
2022-07-29T01:54:46.679Z,21.93
2022-07-29T01:57:21.023Z,22.17
2022-07-29T01:59:49.551Z,22.23
2022-07-29T02:02:19.220Z,22.09
2022-07-29T02:04:49.596Z,22.33
2022-07-29T02:07:25.655Z,21.93
2022-07-29T02:09:53.799Z,21.63
2022-07-29T02:12:23.044Z,21.92
2022-07-29T02:14:53.931Z,21.94
2022-07-29T02:17:32.017Z,22.02
2022-07-29T02:20:02.787Z,22.25
2022-07-29T02:22:34.445Z,22.35
2022-07-29T02:25:03.129Z,22.46
2022-07-29T02:27:33.572Z,22.45
2022-07-29T02:30:03.853Z,22.00
2022-07-29T02:32:35.173Z,21.88
2022-07-29T02:35:04.436Z,21.86
2022-07-29T02:37:33.055Z,21.37
2022-07-29T02:40:02.690Z,21.71
2022-07-29T02:42:32.257Z,22.00
2022-07-29T02:44:59.453Z,21.98
2022-07-29T02:47:43.054Z,22.09
2022-07-29T02:50:16.755Z,21.88
2022-07-29T02:53:08.433Z,21.85
2022-07-29T02:55:45.976Z,21.43
2022-07-29T02:58:39.001Z,21.36
2022-07-29T03:01:20.913Z,21.67
2022-07-29T03:03:52.725Z,22.03
2022-07-29T03:06:28.137Z,21.75
2022-07-29T03:09:12.786Z,22.06
2022-07-29T03:11:50.230Z,21.99
2022-07-29T03:14:21.865Z,22.06
2022-07-29T03:16:51.124Z,21.95
2022-07-29T03:19:20.030Z,21.42
2022-07-29T03:21:47.456Z,21.44
2022-07-29T03:24:37.808Z,21.51
2022-07-29T03:27:06.607Z,21.28
2022-07-29T03:29:34.722Z,21.43
2022-07-29T03:32:07.849Z,21.24
2022-07-29T03:34:36.823Z,21.02
2022-07-29T03:37:04.503Z,21.03
2022-07-29T03:39:37.465Z,21.27
2022-07-29T03:42:06.418Z,21.24
2022-07-29T03:44:34.890Z,21.23
2022-07-29T03:47:03.163Z,21.08
2022-07-29T03:49:31.856Z,20.83
2022-07-29T03:51:59.563Z,20.72
2022-07-29T03:54:27.324Z,21.04
2022-07-29T03:56:58.607Z,21.15
2022-07-29T03:59:25.950Z,20.88
2022-07-29T04:01:53.920Z,20.90
2022-07-29T04:04:21.106Z,21.17
2022-07-29T04:06:48.602Z,21.46
2022-07-29T04:09:15.752Z,21.43
2022-07-29T04:11:57.125Z,21.41
2022-07-29T04:14:33.199Z,21.42
2022-07-29T04:17:04.520Z,21.28
2022-07-29T04:22:18.643Z,21.30
2022-07-29T04:24:46.456Z,21.53
2022-07-29T04:27:13.619Z,21.55
2022-07-29T04:29:57.015Z,21.81
2022-07-29T04:32:26.562Z,21.68
2022-07-29T04:34:53.640Z,21.77
2022-07-29T04:37:20.715Z,21.90
2022-07-29T04:39:47.935Z,22.14
2022-07-29T04:42:15.097Z,21.89
2022-07-29T04:44:44.300Z,22.14
2022-07-29T04:47:11.364Z,22.32
2022-07-29T04:49:41.425Z,22.24
2022-07-29T04:52:08.373Z,22.67
2022-07-29T04:54:35.420Z,22.85
2022-07-29T04:57:02.667Z,24.39
2022-07-29T04:59:29.641Z,22.75
2022-07-29T05:01:56.887Z,22.65
2022-07-29T05:04:24.122Z,22.85
2022-07-29T05:06:51.157Z,22.76
2022-07-29T05:09:18.363Z,23.03
2022-07-29T05:11:45.342Z,22.98
2022-07-29T05:14:12.318Z,22.99
2022-07-29T05:16:41.187Z,23.49
2022-07-29T05:19:13.827Z,23.59
2022-07-29T05:21:41.679Z,24.03
2022-07-29T05:24:09.004Z,25.35
2022-07-29T05:26:36.486Z,26.25
2022-07-29T05:29:03.680Z,26.14
2022-07-29T05:31:30.648Z,25.00
2022-07-29T05:33:58.142Z,26.64
2022-07-29T05:36:25.062Z,27.77
2022-07-29T05:38:53.128Z,25.16
2022-07-29T05:41:20.969Z,24.84
2022-07-29T05:43:48.555Z,24.59
2022-07-29T05:46:16.112Z,24.73
2022-07-29T05:48:43.313Z,24.80
2022-07-29T05:51:11.062Z,24.55
2022-07-29T05:53:38.194Z,25.53
2022-07-29T05:56:06.606Z,26.42
2022-07-29T05:58:34.032Z,25.79
2022-07-29T06:01:01.569Z,25.89
2022-07-29T06:03:29.622Z,25.78
2022-07-29T06:05:56.899Z,25.75
2022-07-29T06:08:24.337Z,25.75
2022-07-29T06:10:51.662Z,25.79
2022-07-29T06:13:19.469Z,25.72
2022-07-29T06:15:46.672Z,25.50
2022-07-29T06:18:14.496Z,25.69
2022-07-29T06:20:41.898Z,25.57
2022-07-29T06:23:09.123Z,25.47
2022-07-29T06:25:37.621Z,25.47
2022-07-29T06:28:04.888Z,25.55
2022-07-29T06:30:32.077Z,25.64
2022-07-29T06:32:59.323Z,25.63
2022-07-29T06:35:38.501Z,24.93
2022-07-29T06:38:31.593Z,25.43
2022-07-29T06:41:13.158Z,25.86
2022-07-29T06:43:52.104Z,25.84
2022-07-29T06:46:22.650Z,25.65
2022-07-29T06:48:51.187Z,25.69
2022-07-29T06:51:22.739Z,25.69
2022-07-29T06:53:58.436Z,25.85
2022-07-29T06:56:38.822Z,25.69
2022-07-29T06:59:10.547Z,25.82
2022-07-29T07:01:39.490Z,25.49
2022-07-29T07:04:07.253Z,24.68
2022-07-29T07:06:34.785Z,24.83
2022-07-29T07:09:02.789Z,25.09
2022-07-29T07:11:30.013Z,25.57
2022-07-29T07:14:02.241Z,24.83
2022-07-29T07:16:30.733Z,25.13
2022-07-29T07:18:57.789Z,24.72
2022-07-29T07:21:24.716Z,25.36
2022-07-29T07:23:51.832Z,24.88
2022-07-29T07:26:19.105Z,24.94
2022-07-29T07:28:46.585Z,24.61
2022-07-29T07:31:13.684Z,24.73
2022-07-29T07:33:40.860Z,25.05
2022-07-29T07:36:07.931Z,25.04
2022-07-29T07:38:35.824Z,24.99
2022-07-29T07:41:02.986Z,24.86
2022-07-29T07:43:30.026Z,24.47
2022-07-29T07:45:57.002Z,25.02
2022-07-29T07:48:24.299Z,25.03
2022-07-29T07:50:51.589Z,25.05
2022-07-29T07:53:19.066Z,25.13
2022-07-29T07:58:33.585Z,25.50
2022-07-29T08:01:00.573Z,25.79
2022-07-29T08:03:27.731Z,25.76
2022-07-29T08:05:55.458Z,25.65
2022-07-29T08:08:22.530Z,25.56
2022-07-29T08:11:02.138Z,25.74
2022-07-29T08:13:32.900Z,25.93
2022-07-29T08:16:12.161Z,26.17
2022-07-29T08:18:41.349Z,26.18
2022-07-29T08:21:08.271Z,26.16
2022-07-29T08:23:50.522Z,26.29
2022-07-29T08:26:21.768Z,26.19
2022-07-29T08:28:53.400Z,25.76
2022-07-29T08:31:20.619Z,25.93
2022-07-29T08:33:47.615Z,26.24
2022-07-29T08:36:14.744Z,26.92
2022-07-29T08:38:41.663Z,26.37
2022-07-29T08:41:08.641Z,26.11
2022-07-29T08:43:38.356Z,25.91
2022-07-29T08:46:05.951Z,26.05
2022-07-29T08:48:34.273Z,25.83
2022-07-29T08:51:02.489Z,25.98
2022-07-29T08:53:31.610Z,25.70
2022-07-29T08:55:59.426Z,26.25
2022-07-29T08:58:28.922Z,26.04
2022-07-29T09:00:57.940Z,25.96
2022-07-29T09:03:32.309Z,26.14
2022-07-29T09:06:03.474Z,26.51
2022-07-29T09:08:33.190Z,26.70
2022-07-29T09:11:04.078Z,26.58
2022-07-29T09:13:33.126Z,26.59
2022-07-29T09:16:01.184Z,26.55
2022-07-29T09:18:41.212Z,27.27
2022-07-29T09:21:30.697Z,27.09
2022-07-29T09:24:14.008Z,26.80
2022-07-29T09:26:45.298Z,26.57
2022-07-29T09:29:15.924Z,27.17
2022-07-29T09:31:46.585Z,27.12
2022-07-29T09:34:17.967Z,27.18
2022-07-29T09:36:50.658Z,27.08
2022-07-29T09:39:36.091Z,27.14
2022-07-29T09:42:06.573Z,27.29
2022-07-29T09:45:03.664Z,26.79
2022-07-29T09:47:50.239Z,26.75
2022-07-29T09:50:20.575Z,26.86
2022-07-29T09:52:52.302Z,27.15
2022-07-29T09:55:20.075Z,27.73
2022-07-29T09:57:48.043Z,26.88
2022-07-29T10:00:21.011Z,26.92
2022-07-29T10:02:48.866Z,27.30
2022-07-29T10:05:36.610Z,27.26
2022-07-29T10:08:04.437Z,27.48
2022-07-29T10:10:38.271Z,27.19
2022-07-29T10:13:15.346Z,27.56
2022-07-29T10:15:46.917Z,27.81
2022-07-29T10:18:15.527Z,27.53
2022-07-29T10:20:42.807Z,27.84
2022-07-29T10:23:10.507Z,27.63
2022-07-29T10:25:38.065Z,27.88
2022-07-29T10:28:07.370Z,28.18
2022-07-29T10:30:35.018Z,28.44
2022-07-29T10:33:39.961Z,28.64
2022-07-29T10:36:43.397Z,28.83
2022-07-29T10:39:26.643Z,28.33
2022-07-29T10:42:33.344Z,28.09
2022-07-29T10:45:04.618Z,28.46
2022-07-29T10:47:32.332Z,29.23
2022-07-29T10:50:05.220Z,29.13
2022-07-29T10:52:50.541Z,28.36
2022-07-29T10:55:43.653Z,28.74
2022-07-29T10:58:18.935Z,28.38
2022-07-29T11:00:49.474Z,28.39
2022-07-29T11:03:48.975Z,28.80
2022-07-29T11:06:18.000Z,28.76
2022-07-29T11:09:34.816Z,28.12
2022-07-29T11:12:02.921Z,28.14
2022-07-29T11:14:55.886Z,28.22
2022-07-29T11:17:23.819Z,28.44
2022-07-29T11:19:52.777Z,28.12
2022-07-29T11:22:45.834Z,28.13
2022-07-29T11:25:18.102Z,28.07
2022-07-29T11:27:46.114Z,28.10
2022-07-29T11:30:14.532Z,28.25
2022-07-29T11:38:32.065Z,28.25
2022-07-29T11:41:18.565Z,28.21
2022-07-29T11:44:00.751Z,28.36
2022-07-29T11:46:54.011Z,28.23
2022-07-29T11:49:32.091Z,28.29
2022-07-29T11:52:04.906Z,28.63
2022-07-29T11:54:38.797Z,28.40
2022-07-29T11:57:29.495Z,28.36
2022-07-29T12:00:12.295Z,28.50
2022-07-29T12:02:45.093Z,28.52
2022-07-29T12:05:23.944Z,28.59
2022-07-29T12:07:03.313Z,28.14
2022-07-29T12:08:21.154Z,28.60
2022-07-29T12:10:50.282Z,28.03
2022-07-29T12:13:20.585Z,28.15
2022-07-29T12:16:00.030Z,28.61
2022-07-29T12:18:28.017Z,28.40
2022-07-29T12:21:03.800Z,28.02
2022-07-29T12:23:34.823Z,27.74
2022-07-29T12:26:07.696Z,27.58
2022-07-29T12:28:41.154Z,27.66
2022-07-29T12:31:42.014Z,27.88
2022-07-29T12:34:03.129Z,27.57
2022-07-29T12:36:30.348Z,27.14
2022-07-29T12:38:57.664Z,27.18
2022-07-29T12:41:24.795Z,26.95
2022-07-29T12:43:55.865Z,27.04
2022-07-29T12:46:23.080Z,26.57
2022-07-29T12:48:55.849Z,26.77
2022-07-29T12:51:40.710Z,26.71
2022-07-29T12:54:12.233Z,26.72
2022-07-29T12:56:43.535Z,27.10
2022-07-29T12:59:23.150Z,26.78
2022-07-29T13:01:53.115Z,27.01
2022-07-29T13:04:28.542Z,27.33
2022-07-29T13:07:08.117Z,27.00
2022-07-29T13:09:49.312Z,27.61
2022-07-29T13:12:17.226Z,27.16
2022-07-29T13:14:47.866Z,27.26
2022-07-29T13:17:28.702Z,27.22
2022-07-29T13:20:13.467Z,26.91
2022-07-29T13:22:43.201Z,26.96
2022-07-29T13:25:10.968Z,26.74
2022-07-29T13:27:39.643Z,26.95
2022-07-29T13:30:10.318Z,26.80
2022-07-29T13:32:38.573Z,27.19
2022-07-29T13:35:08.993Z,27.03
2022-07-29T13:37:39.379Z,26.58
2022-07-29T13:40:09.233Z,27.15
2022-07-29T13:42:36.807Z,26.83
2022-07-29T13:45:05.447Z,27.05
2022-07-29T13:47:33.401Z,27.07
2022-07-29T13:50:02.347Z,27.03
2022-07-29T13:52:29.697Z,26.92
2022-07-29T13:54:57.566Z,27.14
2022-07-29T13:57:25.065Z,27.02
2022-07-29T13:59:54.362Z,27.23
2022-07-29T14:02:25.844Z,27.10
2022-07-29T14:04:55.348Z,27.04
2022-07-29T14:07:23.884Z,27.16
2022-07-29T14:09:51.467Z,26.56
2022-07-29T14:12:19.126Z,26.99
2022-07-29T14:14:47.246Z,26.82
2022-07-29T14:17:15.701Z,26.72
2022-07-29T14:19:43.160Z,27.03
2022-07-29T14:22:10.852Z,26.96
2022-07-29T14:24:39.355Z,27.33
2022-07-29T14:27:08.192Z,27.10
2022-07-29T14:29:38.137Z,27.20
2022-07-29T14:32:11.588Z,26.93
2022-07-29T14:34:39.157Z,27.40
2022-07-29T14:37:07.901Z,27.18
2022-07-29T14:39:43.090Z,27.33
2022-07-29T14:42:12.654Z,27.59
2022-07-29T14:44:42.092Z,27.69
2022-07-29T14:47:09.453Z,27.59
2022-07-29T14:49:37.033Z,27.28
2022-07-29T14:52:04.750Z,27.36
2022-07-29T14:54:31.959Z,27.53
2022-07-29T14:56:59.037Z,27.76
2022-07-29T14:59:27.093Z,27.94
2022-07-29T15:01:54.467Z,27.49
2022-07-29T15:04:21.481Z,27.63
2022-07-29T15:06:48.961Z,27.42
2022-07-29T15:09:16.408Z,27.31
2022-07-29T15:11:43.573Z,27.08
2022-07-29T15:14:10.857Z,27.53
2022-07-29T15:16:43.562Z,27.42
2022-07-29T15:19:11.744Z,27.68
2022-07-29T15:21:41.597Z,28.03
2022-07-29T15:24:20.251Z,28.17
2022-07-29T15:26:48.419Z,28.09
2022-07-29T15:29:15.972Z,28.24
2022-07-29T15:31:43.925Z,28.14
2022-07-29T15:34:11.119Z,28.32
2022-07-29T15:36:54.034Z,28.70
2022-07-29T15:39:22.922Z,28.09
2022-07-29T15:41:51.496Z,28.90
2022-07-29T15:44:19.021Z,29.28
2022-07-29T15:47:04.644Z,28.47
2022-07-29T15:49:47.290Z,28.28
2022-07-29T15:52:25.471Z,28.32
2022-07-29T15:54:55.350Z,28.74
2022-07-29T15:57:23.425Z,29.36
2022-07-29T15:59:50.808Z,29.15
2022-07-29T16:02:17.796Z,29.08
2022-07-29T16:04:44.913Z,29.06
2022-07-29T16:07:12.335Z,29.32
2022-07-29T16:09:42.251Z,28.78
2022-07-29T16:12:12.674Z,29.51
2022-07-29T16:14:44.414Z,29.15
2022-07-29T16:17:14.994Z,29.22
2022-07-29T16:19:44.307Z,29.22
2022-07-29T16:22:12.516Z,29.37
2022-07-29T16:24:39.674Z,30.38
2022-07-29T16:27:06.986Z,29.97
2022-07-29T16:29:34.278Z,29.64
2022-07-29T16:32:02.392Z,29.14
2022-07-29T16:34:29.822Z,28.69
2022-07-29T16:36:56.850Z,28.48
2022-07-29T16:39:23.799Z,28.72
2022-07-29T16:41:50.872Z,29.05
2022-07-29T16:44:17.941Z,29.89
2022-07-29T16:46:45.818Z,29.50
2022-07-29T16:49:19.039Z,29.11
2022-07-29T16:51:48.520Z,28.92
2022-07-29T16:54:15.512Z,29.12
2022-07-29T16:56:42.592Z,29.33
2022-07-29T16:59:09.830Z,29.21
2022-07-29T17:01:36.972Z,29.29
2022-07-29T17:04:07.181Z,29.78
2022-07-29T17:06:39.971Z,29.10
2022-07-29T17:09:09.896Z,29.28
2022-07-29T17:11:52.325Z,29.14
2022-07-29T17:14:28.303Z,29.29
2022-07-29T17:17:01.177Z,29.32
2022-07-29T17:19:35.698Z,29.38
2022-07-29T17:22:12.651Z,29.60
2022-07-29T17:24:43.118Z,29.12
2022-07-29T17:27:11.044Z,28.92
2022-07-29T17:29:39.293Z,28.67
2022-07-29T17:32:08.977Z,28.56
2022-07-29T17:34:37.608Z,28.46
2022-07-29T17:37:07.814Z,28.62
2022-07-29T17:39:35.635Z,28.39
2022-07-29T17:42:04.237Z,28.21
2022-07-29T17:44:31.246Z,28.33
2022-07-29T17:47:00.574Z,28.39
2022-07-29T17:49:28.188Z,28.24
2022-07-29T17:51:59.047Z,28.17
2022-07-29T17:54:28.015Z,28.24
2022-07-29T17:56:55.322Z,28.34
2022-07-29T17:59:22.790Z,28.44
2022-07-29T18:01:49.773Z,28.29
2022-07-29T18:04:20.885Z,28.30
2022-07-29T18:06:48.074Z,27.96
2022-07-29T18:09:15.117Z,27.96
2022-07-29T18:11:44.369Z,27.94
2022-07-29T18:14:13.456Z,27.78
2022-07-29T18:16:40.771Z,28.06
2022-07-29T18:19:07.878Z,27.88
2022-07-29T18:21:43.645Z,28.11
2022-07-29T18:24:20.599Z,27.77
2022-07-29T18:26:47.757Z,27.94
2022-07-29T18:29:14.839Z,27.96
2022-07-29T18:31:42.390Z,27.97
2022-07-29T18:34:09.350Z,27.62
2022-07-29T18:36:36.604Z,27.79
2022-07-29T18:39:03.847Z,27.55
2022-07-29T18:41:31.319Z,27.75
2022-07-29T18:43:58.811Z,27.65
2022-07-29T18:46:25.814Z,27.46
2022-07-29T18:48:53.435Z,27.46
2022-07-29T18:51:20.372Z,27.42
2022-07-29T18:53:47.667Z,27.28
2022-07-29T18:56:14.718Z,27.44
2022-07-29T18:58:41.635Z,27.61
2022-07-29T19:01:11.446Z,27.39
2022-07-29T19:03:41.954Z,27.55
2022-07-29T19:06:09.320Z,27.12
2022-07-29T19:08:36.321Z,26.88
2022-07-29T19:11:03.489Z,27.33
2022-07-29T19:13:30.963Z,27.18
2022-07-29T19:15:58.124Z,27.47
2022-07-29T19:18:25.350Z,26.80
2022-07-29T19:20:52.268Z,26.41
2022-07-29T19:23:19.680Z,26.17
2022-07-29T19:25:53.790Z,26.33
2022-07-29T19:28:22.573Z,26.30
2022-07-29T19:30:50.009Z,26.40
2022-07-29T19:33:18.837Z,26.42
2022-07-29T19:35:49.322Z,26.60
2022-07-29T19:38:18.606Z,26.59
2022-07-29T19:40:45.610Z,26.44
2022-07-29T19:43:50.526Z,25.73
2022-07-29T19:45:59.697Z,26.18
2022-07-29T19:48:26.675Z,26.14
2022-07-29T19:50:53.759Z,26.17
2022-07-29T19:53:20.774Z,26.01
2022-07-29T19:55:47.832Z,26.13
2022-07-29T19:58:16.180Z,25.76
2022-07-29T20:00:43.609Z,26.10
2022-07-29T20:03:10.852Z,26.08
2022-07-29T20:05:38.093Z,25.81
2022-07-29T20:08:06.226Z,26.20
2022-07-29T20:10:33.887Z,25.71
2022-07-29T20:13:00.973Z,26.05
2022-07-29T20:15:28.094Z,26.10
2022-07-29T20:17:57.316Z,26.05
2022-07-29T20:20:25.733Z,26.09
2022-07-29T20:22:53.804Z,26.09
2022-07-29T20:25:20.806Z,26.07
2022-07-29T20:27:50.578Z,26.02
2022-07-29T20:30:19.132Z,25.55
2022-07-29T20:32:46.104Z,25.65
2022-07-29T20:35:13.915Z,25.67
2022-07-29T20:37:52.342Z,25.66
2022-07-29T20:40:25.713Z,25.80
2022-07-29T20:42:54.667Z,25.72
2022-07-29T20:45:23.847Z,25.22
2022-07-29T20:47:52.163Z,25.30
2022-07-29T20:50:23.883Z,25.53
2022-07-29T20:52:52.613Z,25.53
2022-07-29T20:55:19.895Z,25.37
2022-07-29T20:57:47.211Z,25.37
2022-07-29T21:00:14.714Z,24.69
2022-07-29T21:02:41.968Z,25.17
2022-07-29T21:05:09.708Z,25.22
2022-07-29T21:07:36.859Z,25.24
2022-07-29T21:10:04.899Z,25.10
2022-07-29T21:12:33.658Z,24.78
2022-07-29T21:15:05.352Z,24.73
2022-07-29T21:17:38.996Z,24.99
2022-07-29T21:20:08.525Z,25.07
2022-07-29T21:22:35.557Z,24.94
2022-07-29T21:25:02.949Z,24.84
2022-07-29T21:27:48.313Z,24.73
2022-07-29T21:30:15.715Z,24.79
2022-07-29T21:32:42.750Z,24.57
2022-07-29T21:35:23.384Z,24.48
2022-07-29T21:37:59.293Z,24.57
2022-07-29T21:40:26.402Z,24.47
2022-07-29T21:42:53.598Z,24.52
2022-07-29T21:45:20.649Z,24.46
2022-07-29T21:47:47.594Z,24.43
2022-07-29T21:50:14.713Z,24.37
2022-07-29T21:52:41.631Z,24.29
2022-07-29T21:55:10.553Z,24.17
2022-07-29T21:57:38.526Z,24.04
2022-07-29T22:00:10.511Z,23.94
2022-07-29T22:02:40.202Z,23.84
2022-07-29T22:05:07.613Z,23.88
2022-07-29T22:07:56.477Z,23.58
2022-07-29T22:10:22.638Z,23.18
2022-07-29T22:12:55.518Z,22.93
2022-07-29T22:15:23.276Z,23.13
2022-07-29T22:17:50.764Z,23.71
2022-07-29T22:20:18.157Z,23.49
2022-07-29T22:22:45.143Z,23.40
2022-07-29T22:25:12.581Z,23.64
2022-07-29T22:27:39.883Z,23.78
2022-07-29T22:30:08.046Z,23.06
2022-07-29T22:32:35.163Z,22.69
2022-07-29T22:35:02.134Z,22.77
2022-07-29T22:37:29.210Z,23.23
2022-07-29T22:39:56.641Z,22.99
2022-07-29T22:42:23.621Z,23.22
2022-07-29T22:44:51.131Z,23.30
2022-07-29T22:47:18.164Z,23.35
2022-07-29T22:50:06.565Z,23.35
2022-07-29T22:52:33.556Z,23.28
2022-07-29T22:55:00.664Z,23.25
2022-07-29T22:57:27.977Z,23.30
2022-07-29T22:59:54.900Z,22.80
2022-07-29T23:02:22.052Z,22.98
2022-07-29T23:04:49.137Z,22.78
2022-07-29T23:07:16.168Z,23.04
2022-07-29T23:09:43.262Z,23.03
2022-07-29T23:12:10.355Z,22.80
2022-07-29T23:14:37.684Z,23.22
2022-07-29T23:17:05.391Z,23.21
2022-07-29T23:19:32.382Z,22.70
2022-07-29T23:21:59.748Z,22.65
2022-07-29T23:24:26.706Z,23.10
2022-07-29T23:26:53.911Z,22.45
2022-07-29T23:29:20.878Z,22.48
2022-07-29T23:31:48.501Z,22.99
2022-07-29T23:34:16.006Z,22.95
2022-07-29T23:36:43.211Z,22.88
2022-07-29T23:39:13.313Z,22.25
2022-07-29T23:41:40.671Z,22.76
2022-07-29T23:44:07.765Z,21.95
2022-07-29T23:46:34.968Z,22.58
2022-07-29T23:49:02.254Z,22.12
2022-07-29T23:51:29.364Z,21.71
2022-07-29T23:53:56.634Z,22.59
2022-07-29T23:56:23.902Z,22.77
2022-07-29T23:58:50.977Z,22.59
